createdAt,value
2023-02-05T00:00:10.271Z,15.10
2023-02-05T00:02:12.685Z,14.60
2023-02-05T00:04:16.366Z,15.73
2023-02-05T00:06:18.637Z,10.27
2023-02-05T00:08:20.404Z,12.48
2023-02-05T00:10:23.502Z,12.15
2023-02-05T00:12:25.163Z,12.02
2023-02-05T00:14:26.793Z,10.38
2023-02-05T00:16:28.799Z,11.13
2023-02-05T00:18:30.610Z,10.55
2023-02-05T00:20:32.241Z,12.45
2023-02-05T00:22:33.935Z,9.77
2023-02-05T00:24:35.590Z,16.42
2023-02-05T00:26:42.161Z,11.07
2023-02-05T00:28:44.052Z,9.50
2023-02-05T00:30:45.845Z,9.40
2023-02-05T00:32:47.474Z,13.70
2023-02-05T00:34:49.335Z,12.73
2023-02-05T00:36:50.938Z,11.05
2023-02-05T00:38:52.622Z,14.18
2023-02-05T00:40:54.279Z,19.40
2023-02-05T00:42:57.177Z,14.73
2023-02-05T00:44:58.739Z,14.75
2023-02-05T00:47:00.547Z,10.55
2023-02-05T00:49:02.046Z,15.32
2023-02-05T00:51:03.872Z,13.43
2023-02-05T00:53:05.439Z,11.88
2023-02-05T00:55:07.945Z,12.90
2023-02-05T00:57:09.796Z,15.15
2023-02-05T00:59:12.721Z,10.10
2023-02-05T01:01:14.923Z,7.35
2023-02-05T01:03:16.687Z,10.68
2023-02-05T01:05:18.481Z,7.88
2023-02-05T01:07:20.575Z,13.77
2023-02-05T01:09:22.421Z,10.48
2023-02-05T01:11:24.052Z,8.60
2023-02-05T01:13:25.705Z,14.18
2023-02-05T01:15:28.617Z,9.65
2023-02-05T01:17:30.187Z,10.63
2023-02-05T01:19:33.339Z,13.52
2023-02-05T01:21:34.974Z,16.27
2023-02-05T01:23:36.546Z,9.75
2023-02-05T01:25:38.157Z,10.85
2023-02-05T01:27:39.663Z,12.70
2023-02-05T01:29:41.334Z,10.60
2023-02-05T01:31:44.600Z,12.55
2023-02-05T01:33:46.213Z,11.65
2023-02-05T01:35:48.518Z,9.23
2023-02-05T01:37:50.144Z,12.70
2023-02-05T01:39:51.671Z,12.13
2023-02-05T01:41:53.188Z,12.45
2023-02-05T01:44:09.418Z,13.32
2023-02-05T01:46:20.282Z,13.68
2023-02-05T01:48:27.633Z,11.90
2023-02-05T01:50:32.308Z,14.05
2023-02-05T01:52:33.888Z,15.30
2023-02-05T01:54:39.330Z,16.58
2023-02-05T01:56:45.232Z,13.90
2023-02-05T01:58:51.913Z,13.32
2023-02-05T02:00:53.787Z,12.80
2023-02-05T02:02:55.781Z,10.75
2023-02-05T02:07:11.388Z,8.95
2023-02-05T02:09:12.925Z,14.00
2023-02-05T02:11:18.008Z,11.68
2023-02-05T02:13:22.423Z,11.10
2023-02-05T02:15:27.027Z,7.97
2023-02-05T02:17:29.978Z,9.32
2023-02-05T02:19:34.297Z,13.52
2023-02-05T02:22:14.783Z,10.48
2023-02-05T02:24:49.004Z,7.50
2023-02-05T02:27:02.628Z,7.78
2023-02-05T02:29:05.685Z,7.63
2023-02-05T02:31:11.298Z,8.15
2023-02-05T02:33:19.137Z,10.50
2023-02-05T02:35:27.260Z,9.20
2023-02-05T02:37:36.068Z,7.40
2023-02-05T02:39:42.311Z,9.73
2023-02-05T02:41:51.624Z,13.25
2023-02-05T02:43:56.554Z,14.05
2023-02-05T02:46:04.344Z,9.65
2023-02-05T02:48:07.246Z,11.77
2023-02-05T02:50:13.997Z,12.05
2023-02-05T02:52:19.368Z,11.52
2023-02-05T02:54:22.204Z,11.82
2023-02-05T02:56:26.122Z,12.30
2023-02-05T02:58:32.598Z,13.38
2023-02-05T03:00:34.279Z,11.60
2023-02-05T03:02:38.204Z,10.50
2023-02-05T03:04:42.693Z,9.25
2023-02-05T03:06:48.174Z,12.77
2023-02-05T03:08:54.495Z,8.70
2023-02-05T03:11:01.737Z,15.27
2023-02-05T03:13:03.370Z,11.00
2023-02-05T03:15:06.514Z,10.85
2023-02-05T03:17:08.077Z,12.95
2023-02-05T03:19:10.985Z,8.85
2023-02-05T03:21:17.255Z,9.60
2023-02-05T03:23:18.873Z,11.77
2023-02-05T03:25:22.691Z,8.93
2023-02-05T03:27:24.298Z,9.35
2023-02-05T03:29:28.048Z,8.38
2023-02-05T03:31:41.295Z,11.45
2023-02-05T03:33:54.601Z,11.35
2023-02-05T03:36:04.960Z,5.93
2023-02-05T03:38:29.296Z,10.30
2023-02-05T03:40:38.019Z,10.40
2023-02-05T03:42:49.045Z,8.52
2023-02-05T03:45:07.609Z,6.70
2023-02-05T03:47:16.078Z,6.88
2023-02-05T03:49:21.227Z,9.70
2023-02-05T03:51:35.375Z,7.55
2023-02-05T03:53:43.676Z,8.68
2023-02-05T03:55:49.953Z,7.28
2023-02-05T03:57:58.832Z,6.90
2023-02-05T04:00:03.879Z,11.15
2023-02-05T04:02:06.076Z,7.90
2023-02-05T04:04:07.702Z,8.45
2023-02-05T04:06:09.424Z,6.50
2023-02-05T04:08:12.335Z,6.85
2023-02-05T04:10:14.106Z,7.20
2023-02-05T04:12:15.672Z,8.15
2023-02-05T04:14:17.200Z,9.13
2023-02-05T04:16:18.754Z,9.38
2023-02-05T04:18:20.508Z,7.82
2023-02-05T04:20:22.207Z,6.07
2023-02-05T04:22:23.758Z,5.32
2023-02-05T04:24:26.881Z,6.22
2023-02-05T04:26:28.433Z,7.78
2023-02-05T04:28:29.993Z,6.47
2023-02-05T04:30:31.825Z,6.40
2023-02-05T04:32:33.372Z,6.50
2023-02-05T04:34:34.904Z,8.45
2023-02-05T04:36:36.447Z,6.75
2023-02-05T04:38:37.977Z,8.25
2023-02-05T04:40:40.929Z,6.28
2023-02-05T04:42:42.498Z,7.38
2023-02-05T04:44:44.009Z,6.30
2023-02-05T04:46:48.670Z,8.55
2023-02-05T04:48:50.272Z,6.32
2023-02-05T04:50:51.810Z,7.20
2023-02-05T04:52:53.365Z,6.90
2023-02-05T04:54:54.891Z,6.80
2023-02-05T04:56:57.772Z,10.13
2023-02-05T04:58:59.330Z,5.90
2023-02-05T05:01:01.036Z,6.68
2023-02-05T05:03:02.620Z,7.30
2023-02-05T05:05:04.558Z,6.15
2023-02-05T05:07:06.198Z,5.88
2023-02-05T05:09:07.720Z,7.38
2023-02-05T05:11:11.961Z,5.72
2023-02-05T05:13:14.837Z,6.10
2023-02-05T05:15:16.554Z,7.93
2023-02-05T05:17:18.118Z,5.35
2023-02-05T05:19:19.659Z,6.35
2023-02-05T05:21:23.550Z,8.07
2023-02-05T05:23:25.558Z,5.43
2023-02-05T05:25:27.065Z,6.05
2023-02-05T05:27:28.752Z,6.88
2023-02-05T05:29:31.641Z,5.85
2023-02-05T05:31:33.196Z,9.18
2023-02-05T05:33:34.873Z,4.65
2023-02-05T05:35:37.008Z,4.55
2023-02-05T05:37:38.514Z,6.55
2023-02-05T05:39:40.026Z,6.85
2023-02-05T05:41:41.551Z,4.90
2023-02-05T05:43:43.087Z,6.13
2023-02-05T05:45:46.155Z,6.10
2023-02-05T05:47:47.912Z,4.40
2023-02-05T05:49:49.775Z,8.40
2023-02-05T05:51:51.327Z,6.65
2023-02-05T05:53:52.892Z,7.03
2023-02-05T05:55:54.384Z,6.65
2023-02-05T05:57:55.875Z,9.38
2023-02-05T05:59:57.396Z,5.30
2023-02-05T06:02:00.555Z,5.97
2023-02-05T06:04:04.161Z,9.02
2023-02-05T06:06:07.797Z,7.57
2023-02-05T06:08:09.361Z,8.00
2023-02-05T06:10:10.928Z,5.43
2023-02-05T06:12:12.480Z,6.18
2023-02-05T06:14:13.983Z,10.88
2023-02-05T06:16:15.496Z,5.07
2023-02-05T06:18:18.680Z,9.65
2023-02-05T06:20:23.438Z,5.47
2023-02-05T06:22:26.222Z,6.65
2023-02-05T06:24:29.567Z,7.07
2023-02-05T06:26:32.590Z,7.75
2023-02-05T06:28:34.135Z,5.13
2023-02-05T06:30:35.746Z,6.15
2023-02-05T06:32:37.216Z,6.35
2023-02-05T06:34:40.073Z,7.57
2023-02-05T06:36:44.389Z,8.70
2023-02-05T06:38:46.002Z,10.50
2023-02-05T06:40:48.212Z,7.88
2023-02-05T06:42:49.901Z,6.22
2023-02-05T06:44:51.470Z,10.05
2023-02-05T06:46:52.984Z,8.20
2023-02-05T06:48:54.551Z,10.20
2023-02-05T06:50:57.418Z,13.10
2023-02-05T06:52:59.066Z,8.82
2023-02-05T06:55:00.675Z,12.50
2023-02-05T06:57:02.242Z,11.95
2023-02-05T06:59:04.154Z,13.82
2023-02-05T07:01:05.802Z,11.63
2023-02-05T07:03:07.332Z,15.88
2023-02-05T07:05:09.212Z,17.70
2023-02-05T07:07:12.072Z,13.63
2023-02-05T07:09:13.585Z,15.93
2023-02-05T07:11:15.208Z,14.35
2023-02-05T07:13:16.734Z,13.73
2023-02-05T07:15:18.474Z,10.30
2023-02-05T07:17:19.981Z,13.32
2023-02-05T07:19:21.700Z,16.75
2023-02-05T07:21:23.186Z,12.15
2023-02-05T07:23:26.033Z,15.77
2023-02-05T07:25:27.555Z,13.10
2023-02-05T07:27:30.714Z,15.48
2023-02-05T07:29:32.363Z,18.02
2023-02-05T07:31:34.061Z,14.02
2023-02-05T07:33:35.746Z,16.90
2023-02-05T07:35:38.112Z,15.00
2023-02-05T07:37:39.637Z,22.15
2023-02-05T07:39:42.494Z,16.98
2023-02-05T07:41:44.028Z,16.42
2023-02-05T07:43:45.565Z,14.50
2023-02-05T07:45:47.259Z,17.67
2023-02-05T07:47:48.970Z,12.45
2023-02-05T07:49:50.591Z,17.60
2023-02-05T07:51:52.311Z,15.18
2023-02-05T07:53:54.015Z,15.45
2023-02-05T07:55:57.135Z,17.17
2023-02-05T07:57:58.957Z,15.98
2023-02-05T08:00:00.602Z,16.98
2023-02-05T08:02:02.610Z,17.10
2023-02-05T08:04:04.650Z,15.80
2023-02-05T08:06:07.717Z,16.70
2023-02-05T08:08:11.863Z,14.60
2023-02-05T08:10:14.628Z,20.38
2023-02-05T08:12:17.496Z,14.23
2023-02-05T08:14:19.025Z,14.13
2023-02-05T08:16:21.219Z,15.02
2023-02-05T08:18:23.440Z,14.98
2023-02-05T08:20:24.984Z,19.85
2023-02-05T08:22:26.532Z,17.63
2023-02-05T08:24:28.210Z,16.92
2023-02-05T08:26:29.802Z,18.70
2023-02-05T08:28:32.660Z,17.08
2023-02-05T08:30:34.283Z,20.38
2023-02-05T08:32:37.128Z,15.35
2023-02-05T08:34:38.609Z,16.92
2023-02-05T08:36:40.137Z,16.13
2023-02-05T08:38:41.912Z,14.60
2023-02-05T08:40:43.448Z,18.75
2023-02-05T08:42:45.001Z,17.77
2023-02-05T08:44:47.914Z,20.40
2023-02-05T08:46:50.629Z,18.20
2023-02-05T08:48:53.283Z,17.90
2023-02-05T08:50:54.849Z,19.35
2023-02-05T08:52:56.429Z,16.25
2023-02-05T08:54:58.513Z,16.25
2023-02-05T08:57:00.092Z,18.02
2023-02-05T08:59:01.674Z,19.92
2023-02-05T09:01:06.893Z,19.77
2023-02-05T09:03:08.415Z,18.55
2023-02-05T09:05:10.097Z,20.65
2023-02-05T09:07:11.604Z,15.60
2023-02-05T09:09:13.476Z,16.08
2023-02-05T09:11:21.077Z,16.70
2023-02-05T09:13:22.593Z,20.10
2023-02-05T09:15:24.168Z,19.33
2023-02-05T09:17:27.136Z,16.38
2023-02-05T09:19:29.053Z,18.20
2023-02-05T09:21:30.654Z,15.35
2023-02-05T09:23:32.234Z,18.70
2023-02-05T09:25:34.000Z,15.57
2023-02-05T09:27:35.905Z,17.05
2023-02-05T09:29:37.740Z,18.10
2023-02-05T09:31:41.088Z,19.30
2023-02-05T09:33:46.396Z,25.65
2023-02-05T09:35:48.101Z,17.45
2023-02-05T09:37:49.778Z,26.52
2023-02-05T09:42:21.077Z,20.08
2023-02-05T09:44:43.006Z,20.25
2023-02-05T09:46:53.349Z,16.92
2023-02-05T09:49:00.881Z,20.20
2023-02-05T09:51:03.440Z,20.58
2023-02-05T09:53:11.510Z,18.15
2023-02-05T09:55:19.838Z,19.92
2023-02-05T09:57:32.144Z,18.67
2023-02-05T09:59:34.170Z,22.58
2023-02-05T10:01:44.331Z,17.58
2023-02-05T10:03:48.496Z,20.02
2023-02-05T10:06:07.879Z,21.13
2023-02-05T10:08:19.207Z,19.05
2023-02-05T10:10:26.309Z,25.42
2023-02-05T10:12:40.361Z,19.15
2023-02-05T10:14:51.986Z,21.20
2023-02-05T10:17:09.842Z,22.25
2023-02-05T10:19:26.814Z,23.13
2023-02-05T10:21:47.764Z,25.92
2023-02-05T10:24:16.480Z,26.15
2023-02-05T10:26:18.217Z,25.55
2023-02-05T10:28:35.810Z,23.38
2023-02-05T10:30:47.610Z,22.90
2023-02-05T10:32:56.168Z,18.60
2023-02-05T10:35:00.678Z,18.23
2023-02-05T10:37:09.186Z,20.67
2023-02-05T10:39:14.237Z,21.23
2023-02-05T10:41:24.570Z,18.33
2023-02-05T10:43:30.065Z,20.23
2023-02-05T10:45:31.958Z,19.67
2023-02-05T10:48:02.413Z,20.75
2023-02-05T10:50:14.021Z,20.90
2023-02-05T10:52:17.451Z,25.85
2023-02-05T10:54:26.307Z,20.98
2023-02-05T10:56:27.936Z,18.75
2023-02-05T10:58:39.169Z,19.98
2023-02-05T11:00:40.923Z,19.90
2023-02-05T11:02:45.936Z,18.77
2023-02-05T11:04:52.605Z,19.90
2023-02-05T11:06:54.457Z,18.85
2023-02-05T11:08:57.554Z,23.95
2023-02-05T11:10:59.153Z,18.55
2023-02-05T11:13:05.086Z,19.05
2023-02-05T11:15:19.615Z,20.35
2023-02-05T11:17:22.967Z,21.38
2023-02-05T11:19:27.678Z,20.98
2023-02-05T11:21:48.651Z,20.38
2023-02-05T11:23:55.414Z,18.17
2023-02-05T11:25:59.686Z,18.60
2023-02-05T11:28:03.291Z,19.30
2023-02-05T11:30:49.614Z,18.38
2023-02-05T11:32:46.741Z,17.30
2023-02-05T11:34:48.414Z,17.20
2023-02-05T11:36:52.216Z,18.88
2023-02-05T11:38:54.988Z,21.05
2023-02-05T11:41:00.621Z,19.55
2023-02-05T11:43:07.508Z,23.58
2023-02-05T11:45:17.332Z,19.17
2023-02-05T11:47:24.935Z,19.85
2023-02-05T11:49:31.183Z,21.40
2023-02-05T11:51:45.320Z,19.15
2023-02-05T11:53:57.308Z,20.67
2023-02-05T11:56:07.433Z,19.60
2023-02-05T11:58:25.136Z,20.75
2023-02-05T12:00:36.622Z,20.20
2023-02-05T12:02:39.491Z,18.33
2023-02-05T12:04:47.471Z,19.35
2023-02-05T12:06:52.454Z,20.90
2023-02-05T12:08:54.059Z,19.05
2023-02-05T12:11:08.444Z,19.00
2023-02-05T12:13:21.492Z,20.73
2023-02-05T12:15:26.519Z,20.60
2023-02-05T12:17:35.235Z,21.85
2023-02-05T12:19:46.542Z,19.33
2023-02-05T12:21:58.280Z,22.75
2023-02-05T12:24:37.200Z,20.85
2023-02-05T12:26:44.001Z,19.30
2023-02-05T12:28:54.246Z,16.58
2023-02-05T12:31:08.163Z,19.65
2023-02-05T12:33:28.351Z,17.77
2023-02-05T12:35:44.872Z,20.23
2023-02-05T12:37:54.191Z,20.20
2023-02-05T12:40:07.148Z,17.73
2023-02-05T12:42:20.918Z,21.77
2023-02-05T12:44:38.070Z,20.02
2023-02-05T12:46:51.217Z,26.80
2023-02-05T12:49:09.912Z,22.48
2023-02-05T12:51:30.968Z,21.33
2023-02-05T12:53:51.323Z,18.83
2023-02-05T12:56:13.024Z,22.52
2023-02-05T12:58:19.768Z,19.70
2023-02-05T13:00:25.815Z,21.38
2023-02-05T13:02:33.481Z,18.50
2023-02-05T13:04:40.212Z,21.10
2023-02-05T13:06:47.735Z,18.90
2023-02-05T13:08:53.048Z,22.40
2023-02-05T13:10:59.708Z,22.98
2023-02-05T13:13:06.252Z,21.98
2023-02-05T13:15:16.508Z,22.70
2023-02-05T13:17:22.814Z,22.33
2023-02-05T13:19:28.277Z,24.38
2023-02-05T13:21:30.317Z,24.33
2023-02-05T13:23:35.187Z,21.08
2023-02-05T13:25:40.135Z,20.50
2023-02-05T13:27:46.485Z,24.70
2023-02-05T13:29:51.617Z,24.13
2023-02-05T13:32:10.566Z,22.40
2023-02-05T13:34:17.769Z,18.63
2023-02-05T13:36:47.170Z,21.10
2023-02-05T13:39:08.451Z,20.08
2023-02-05T13:41:28.522Z,16.90
2023-02-05T13:44:01.954Z,19.58
2023-02-05T13:46:33.919Z,20.77
2023-02-05T13:49:41.561Z,21.52
2023-02-05T13:51:53.249Z,28.60
2023-02-05T13:54:13.988Z,34.67
2023-02-05T13:56:30.900Z,26.25
2023-02-05T13:58:35.688Z,25.70
2023-02-05T14:00:40.230Z,21.27
2023-02-05T14:02:44.197Z,24.58
2023-02-05T14:04:48.394Z,36.75
2023-02-05T14:06:58.187Z,40.58
2023-02-05T14:09:03.485Z,18.50
2023-02-05T14:11:06.165Z,26.02
2023-02-05T14:13:17.762Z,33.67
2023-02-05T14:15:35.078Z,26.45
2023-02-05T14:17:54.527Z,17.27
2023-02-05T14:19:57.620Z,16.77
2023-02-05T14:22:04.099Z,14.30
2023-02-05T14:24:27.231Z,14.10
2023-02-05T14:26:44.800Z,12.57
2023-02-05T14:28:49.217Z,14.63
2023-02-05T14:30:52.265Z,15.20
2023-02-05T14:32:59.708Z,16.13
2023-02-05T14:35:01.988Z,13.68
2023-02-05T14:37:05.750Z,14.70
2023-02-05T14:39:20.419Z,16.13
2023-02-05T14:41:25.034Z,14.68
2023-02-05T14:43:32.179Z,15.75
2023-02-05T14:45:35.080Z,18.40
2023-02-05T14:47:40.522Z,20.00
2023-02-05T14:49:45.379Z,17.38
2023-02-05T14:51:52.288Z,47.15
2023-02-05T14:53:59.354Z,11.75
2023-02-05T14:56:02.016Z,8.95
2023-02-05T14:58:07.174Z,7.35
2023-02-05T15:00:24.510Z,6.60
2023-02-05T15:03:14.883Z,9.05
2023-02-05T15:05:21.752Z,10.65
2023-02-05T15:07:27.416Z,10.10
2023-02-05T15:09:41.251Z,8.90
2023-02-05T15:11:55.127Z,7.85
2023-02-05T15:14:25.689Z,9.27
2023-02-05T15:16:27.282Z,8.02
2023-02-05T15:18:32.102Z,8.13
2023-02-05T15:20:34.933Z,8.00
2023-02-05T15:22:40.256Z,7.70
2023-02-05T15:24:44.398Z,7.20
2023-02-05T15:26:51.764Z,7.90
2023-02-05T15:28:59.423Z,8.07
2023-02-05T15:31:18.630Z,8.52
2023-02-05T15:33:28.572Z,9.10
2023-02-05T15:35:33.399Z,9.43
2023-02-05T15:37:41.999Z,8.10
2023-02-05T15:39:51.127Z,8.05
2023-02-05T15:41:56.022Z,7.10
2023-02-05T15:43:59.945Z,9.35
2023-02-05T15:46:05.486Z,7.75
2023-02-05T15:48:12.451Z,9.63
2023-02-05T15:50:15.238Z,27.35
2023-02-05T15:52:20.742Z,22.88
2023-02-05T15:54:22.947Z,23.52
2023-02-05T15:56:28.131Z,11.98
2023-02-05T15:58:29.958Z,10.15
2023-02-05T16:00:36.987Z,15.57
2023-02-05T16:02:38.544Z,35.03
2023-02-05T16:04:40.155Z,16.70
2023-02-05T16:06:41.831Z,19.25
2023-02-05T16:08:46.722Z,14.30
2023-02-05T16:10:53.031Z,8.57
2023-02-05T16:12:59.928Z,12.95
2023-02-05T16:15:03.360Z,17.23
2023-02-05T16:17:11.042Z,9.60
2023-02-05T16:19:20.933Z,13.60
2023-02-05T16:21:25.726Z,12.45
2023-02-05T16:23:33.843Z,8.85
2023-02-05T16:25:43.440Z,9.50
2023-02-05T16:27:48.752Z,19.33
2023-02-05T16:29:55.686Z,11.23
2023-02-05T16:32:01.584Z,9.50
2023-02-05T16:34:11.887Z,40.03
2023-02-05T16:36:19.211Z,79.85
2023-02-05T16:38:22.223Z,26.42
2023-02-05T16:40:32.774Z,14.82
2023-02-05T16:42:38.202Z,12.48
2023-02-05T16:44:40.354Z,15.10
2023-02-05T16:46:43.309Z,11.95
2023-02-05T16:48:49.555Z,10.20
2023-02-05T16:50:51.844Z,9.52
2023-02-05T16:52:56.493Z,9.00
2023-02-05T16:54:58.814Z,10.75
2023-02-05T16:57:09.222Z,36.10
2023-02-05T16:59:17.911Z,20.17
2023-02-05T17:01:24.639Z,13.65
2023-02-05T17:03:32.087Z,26.42
2023-02-05T17:05:36.508Z,33.30
2023-02-05T17:07:38.078Z,17.02
2023-02-05T17:09:39.990Z,12.45
2023-02-05T17:11:42.782Z,12.20
2023-02-05T17:13:45.117Z,12.40
2023-02-05T17:15:46.739Z,14.90
2023-02-05T17:17:50.257Z,13.48
2023-02-05T17:20:22.821Z,15.32
2023-02-05T17:22:24.333Z,12.32
2023-02-05T17:24:26.120Z,13.23
2023-02-05T17:26:30.880Z,24.75
2023-02-05T17:28:32.589Z,15.05
2023-02-05T17:30:35.113Z,14.57
2023-02-05T17:32:37.367Z,15.65
2023-02-05T17:34:38.867Z,14.75
2023-02-05T17:36:41.925Z,14.27
2023-02-05T17:38:43.712Z,12.52
2023-02-05T17:40:45.273Z,12.27
2023-02-05T17:42:47.534Z,15.00
2023-02-05T17:44:49.797Z,16.98
2023-02-05T17:46:51.517Z,20.60
2023-02-05T17:48:53.137Z,23.10
2023-02-05T17:50:54.718Z,21.77
2023-02-05T17:52:57.603Z,76.88
2023-02-05T17:54:59.208Z,40.33
2023-02-05T17:57:12.158Z,20.05
2023-02-05T17:59:15.932Z,22.13
2023-02-05T18:01:18.304Z,22.15
2023-02-05T18:03:19.831Z,25.42
2023-02-05T18:05:22.671Z,17.60
2023-02-05T18:07:29.334Z,17.15
2023-02-05T18:09:32.177Z,13.23
2023-02-05T18:11:33.850Z,13.25
2023-02-05T18:13:35.755Z,13.98
2023-02-05T18:15:37.507Z,14.13
2023-02-05T18:17:39.635Z,14.20
2023-02-05T18:19:41.170Z,11.23
2023-02-05T18:21:42.741Z,12.15
2023-02-05T18:23:44.298Z,11.38
2023-02-05T18:25:47.163Z,10.90
2023-02-05T18:27:48.771Z,10.05
2023-02-05T18:29:50.430Z,11.43
2023-02-05T18:31:51.921Z,9.73
2023-02-05T18:33:53.413Z,12.95
2023-02-05T18:36:00.338Z,9.75
2023-02-05T18:38:01.885Z,9.73
2023-02-05T18:40:04.003Z,10.00
2023-02-05T18:42:06.941Z,9.45
2023-02-05T18:44:08.642Z,9.05
2023-02-05T18:46:12.360Z,9.25
2023-02-05T18:48:14.068Z,9.32
2023-02-05T18:50:16.361Z,9.27
2023-02-05T18:52:17.930Z,10.00
2023-02-05T18:54:19.511Z,9.50
2023-02-05T18:56:22.964Z,8.75
2023-02-05T18:58:25.879Z,9.98
2023-02-05T19:00:27.551Z,9.32
2023-02-05T19:02:29.025Z,8.80
2023-02-05T19:04:30.555Z,9.75
2023-02-05T19:06:32.576Z,9.60
2023-02-05T19:08:34.267Z,9.23
2023-02-05T19:10:36.463Z,9.90
2023-02-05T19:12:38.160Z,9.65
2023-02-05T19:14:41.018Z,10.80
2023-02-05T19:16:43.696Z,9.68
2023-02-05T19:18:46.160Z,8.70
2023-02-05T19:20:47.698Z,9.82
2023-02-05T19:22:52.368Z,10.65
2023-02-05T19:24:53.884Z,9.52
2023-02-05T19:26:56.225Z,11.25
2023-02-05T19:28:59.827Z,11.65
2023-02-05T19:31:03.920Z,17.45
2023-02-05T19:33:05.582Z,22.88
2023-02-05T19:35:07.794Z,18.63
2023-02-05T19:37:11.861Z,17.05
2023-02-05T19:39:14.581Z,24.40
2023-02-05T19:41:17.651Z,15.63
2023-02-05T19:43:19.214Z,18.42
2023-02-05T19:45:20.773Z,15.95
2023-02-05T19:47:23.637Z,16.85
2023-02-05T19:49:25.237Z,42.25
2023-02-05T19:51:26.863Z,15.95
2023-02-05T19:53:28.397Z,15.77
2023-02-05T19:55:31.325Z,13.15
2023-02-05T19:57:33.895Z,60.95
2023-02-05T19:59:35.546Z,50.65
2023-02-05T20:01:38.363Z,22.40
2023-02-05T20:03:42.174Z,36.88
2023-02-05T20:05:43.660Z,31.17
2023-02-05T20:07:48.624Z,15.32
2023-02-05T20:09:50.146Z,32.20
2023-02-05T20:11:52.023Z,44.05
2023-02-05T20:13:53.698Z,17.55
2023-02-05T20:15:55.324Z,24.17
2023-02-05T20:17:58.508Z,20.13
2023-02-05T20:20:12.338Z,15.52
2023-02-05T20:22:17.382Z,12.05
2023-02-05T20:24:18.961Z,13.57
2023-02-05T20:26:21.228Z,10.40
2023-02-05T20:28:23.359Z,11.07
2023-02-05T20:30:25.081Z,17.15
2023-02-05T20:32:26.768Z,10.93
2023-02-05T20:34:28.782Z,43.17
2023-02-05T20:36:33.587Z,19.73
2023-02-05T20:38:35.402Z,16.52
2023-02-05T20:40:37.078Z,10.55
2023-02-05T20:42:38.763Z,14.18
2023-02-05T20:44:41.172Z,10.50
2023-02-05T20:46:42.856Z,10.35
2023-02-05T20:48:44.710Z,10.07
2023-02-05T20:50:46.297Z,13.00
2023-02-05T20:52:49.217Z,13.27
2023-02-05T20:54:50.946Z,9.93
2023-02-05T20:56:53.368Z,10.10
2023-02-05T20:58:57.760Z,8.93
2023-02-05T21:01:05.763Z,8.88
2023-02-05T21:03:07.260Z,9.52
2023-02-05T21:05:08.755Z,8.57
2023-02-05T21:07:10.519Z,9.45
2023-02-05T21:09:14.486Z,8.18
2023-02-05T21:11:17.907Z,8.07
2023-02-05T21:13:19.560Z,9.75
2023-02-05T21:15:21.094Z,9.13
2023-02-05T21:17:22.572Z,9.57
2023-02-05T21:19:24.096Z,8.50
2023-02-05T21:21:27.749Z,7.85
2023-02-05T21:23:29.241Z,8.05
2023-02-05T21:25:35.121Z,9.40
2023-02-05T21:27:36.637Z,8.82
2023-02-05T21:29:38.304Z,8.93
2023-02-05T21:31:42.034Z,9.73
2023-02-05T21:33:43.618Z,9.27
2023-02-05T21:35:45.174Z,9.07
2023-02-05T21:37:46.702Z,9.63
2023-02-05T21:39:49.437Z,9.07
2023-02-05T21:41:54.049Z,9.00
2023-02-05T21:43:58.158Z,8.10
2023-02-05T21:46:01.326Z,9.88
2023-02-05T21:48:02.910Z,8.80
2023-02-05T21:50:05.838Z,11.25
2023-02-05T21:52:08.115Z,10.68
2023-02-05T21:54:10.778Z,11.10
2023-02-05T21:56:15.582Z,10.70
2023-02-05T21:58:18.546Z,11.02
2023-02-05T22:00:20.386Z,11.10
2023-02-05T22:02:21.946Z,11.52
2023-02-05T22:04:23.547Z,12.13
2023-02-05T22:06:27.246Z,10.23
2023-02-05T22:08:30.660Z,11.00
2023-02-05T22:10:32.153Z,10.75
2023-02-05T22:12:33.663Z,11.18
2023-02-05T22:14:36.559Z,10.77
2023-02-05T22:16:38.711Z,12.10
2023-02-05T22:18:41.196Z,10.70
2023-02-05T22:20:42.639Z,11.55
2023-02-05T22:22:44.304Z,11.27
2023-02-05T22:24:45.835Z,10.95
2023-02-05T22:26:47.678Z,10.27
2023-02-05T22:28:49.520Z,11.48
2023-02-05T22:30:58.732Z,10.75
2023-02-05T22:33:00.257Z,10.75
2023-02-05T22:35:01.795Z,10.32
2023-02-05T22:37:03.271Z,11.23
2023-02-05T22:39:06.601Z,9.23
2023-02-05T22:41:09.816Z,9.98
2023-02-05T22:43:11.353Z,9.13
2023-02-05T22:45:12.959Z,8.88
2023-02-05T22:47:15.856Z,10.35
2023-02-05T22:49:17.345Z,8.55
2023-02-05T22:51:20.677Z,9.02
2023-02-05T22:53:22.151Z,8.90
2023-02-05T22:55:23.583Z,7.28
2023-02-05T22:57:25.163Z,7.72
2023-02-05T22:59:26.827Z,8.48
2023-02-05T23:01:30.641Z,7.85
2023-02-05T23:03:33.768Z,7.45
2023-02-05T23:05:35.585Z,8.30
2023-02-05T23:07:37.474Z,8.15
2023-02-05T23:09:38.994Z,8.15
2023-02-05T23:11:40.634Z,7.93
2023-02-05T23:13:42.292Z,8.15
2023-02-05T23:15:43.826Z,7.32
2023-02-05T23:17:45.376Z,8.82
2023-02-05T23:19:50.804Z,7.95
2023-02-05T23:21:52.349Z,7.35
2023-02-05T23:23:54.100Z,9.57
2023-02-05T23:25:55.546Z,7.10
2023-02-05T23:27:57.126Z,9.88
2023-02-05T23:29:58.757Z,7.57
2023-02-05T23:32:00.241Z,7.85
2023-02-05T23:34:01.838Z,9.00
2023-02-05T23:36:06.860Z,8.35
2023-02-05T23:38:08.566Z,7.93
2023-02-05T23:40:11.090Z,8.10
2023-02-05T23:42:12.614Z,8.02
2023-02-05T23:44:16.468Z,7.40
2023-02-05T23:46:18.022Z,7.07
2023-02-05T23:48:20.037Z,7.05
2023-02-05T23:50:21.581Z,7.75
2023-02-05T23:52:24.597Z,7.65
2023-02-05T23:54:26.363Z,7.60
2023-02-05T23:56:27.898Z,8.45
2023-02-05T23:58:29.367Z,8.88
